Etna, NY

9:11 PM EST on February 13, 2016 (GMT -0500)
Wood rd | | Change Station
CLOSE
Current Station
Personal Weather Station
Location: Freeville, NY
Elevation: 1066 ft
Nearby Weather Stations
Active Advisory: Wind Chill Warning Active Notice: Local Storm Report

Elev 1066 ft 42.49 °N, 76.39 °W | Updated 48 seconds ago

Overcast
Overcast
-0.8 °F
Feels Like -13 °F
N
6.3
Wind Variable Wind from West

Today
High -- | Low -- °F
--% Chance of Precip.
Yesterday
High -- | Low -- °F
Precip. -- in
Pressure 30.35 in
Visibility 8.0 miles
Clouds Mostly Cloudy 2100 ft
Windchill -13 °F
Dew Point -7 °F
Humidity 73%
Rainfall 0.00 in
Snow Depth Not available.
7:05 AM 5:34 PM
Waxing Crescent, 36% visible
METAR KITH 140156Z 32018G25KT 8SM BKN021 M18/M22 A3025 RMK AO2 PK WND 27027/0106 SLP275 T11781222
Pressure 30.35 in
Visibility 8.0 miles
Clouds Mostly Cloudy 2100 ft
Windchill -13 °F
Dew Point -7 °F
Humidity 73%
Rainfall 0.00 in
Snow Depth Not available.
7:05 AM 5:34 PM
Waxing Crescent, 36% visible
METAR KITH 140156Z 32018G25KT 8SM BKN021 M18/M22 A3025 RMK AO2 PK WND 27027/0106 SLP275 T11781222

10-Day Weather Forecast

Almanac

Astronomy

Feb. 13, 2016 Rise Set
Actual Time
Civil Twilight
Nautical Twilight
Astronomical Twilight
Moon
Length of Visible Light
Length of Day
Tomorrow will be .
, % of the Moon is Illuminated

Today's Extremes

State Highs State Lows

Community

WunderPhotos

Upload Photos

1,892,726 photos uploaded!

WunderBlog® & News

Nearby

Air Quality

  Air Quality AQ Index Pollutant
Not available.

Snow Depth

Station Depth Elevation

Earthquake Activity

City Distance Mag. Time & Date
Minimum magnitude displayed is 2.5.

Coastal Water Temperatures

Place Temperature

Stations

Nearby Weather Stations

Station Location Temp. Windchill Dew Point Humidity Wind Precip. Elev Updated Type
                   

Watches & Warnings

Wind Chill Warning
Issued: 2:29 PM EST Feb. 13, 2016 – National Weather Service

... Wind chill warning remains in effect until 1 PM EST Sunday...

* locations... the southern tier... Syracuse area and The Finger
lakes regions of New York.

* Hazard types... dangerously low wind chills and extreme cold.

* Timing... through Sunday morning.

* Impacts... potential for frostbite and hypothermia. The extreme
cold may also lead to pipes freezing.

* Wind chill readings... as low as 29 below.

* Winds... northwest 10 to 20 mph with gusts up to 35 mph.

* Temperatures... 10 below to 5 above zero.

Precautionary/preparedness actions...

A wind chill warning means the combination of very cold air and
strong winds will create dangerously low wind chill values. This
will result in frost bite and lead to hypothermia or death if
precautions are not taken.